createdAt,value
2023-04-27T00:01:12.640Z,9.50
2023-04-27T00:03:39.636Z,6.78
2023-04-27T00:06:06.769Z,6.45
2023-04-27T00:08:33.654Z,5.45
2023-04-27T00:11:00.906Z,6.43
2023-04-27T00:13:27.670Z,6.28
2023-04-27T00:15:54.554Z,10.43
2023-04-27T00:18:21.345Z,21.33
2023-04-27T00:20:48.288Z,12.90
2023-04-27T00:23:14.987Z,11.20
2023-04-27T00:25:41.725Z,5.20
2023-04-27T00:28:08.530Z,5.00
2023-04-27T00:30:35.978Z,4.65
2023-04-27T00:33:02.802Z,5.28
2023-04-27T00:35:29.496Z,5.60
2023-04-27T00:37:58.253Z,5.53
2023-04-27T00:40:24.919Z,5.15
2023-04-27T00:42:52.746Z,4.88
2023-04-27T00:45:19.469Z,5.22
2023-04-27T00:47:46.166Z,5.55
2023-04-27T00:50:13.391Z,5.53
2023-04-27T00:52:40.095Z,6.05
2023-04-27T00:55:08.569Z,6.05
2023-04-27T00:57:35.684Z,5.25
2023-04-27T01:00:07.007Z,5.60
2023-04-27T01:02:35.158Z,6.22
2023-04-27T01:05:03.185Z,5.25
2023-04-27T01:07:30.155Z,6.18
2023-04-27T01:09:59.037Z,5.80
2023-04-27T01:12:26.523Z,5.72
2023-04-27T01:14:53.606Z,6.07
2023-04-27T01:17:21.246Z,6.20
2023-04-27T01:19:51.506Z,5.93
2023-04-27T01:22:18.861Z,6.22
2023-04-27T01:24:46.168Z,6.15
2023-04-27T01:27:13.408Z,7.85
2023-04-27T01:29:41.290Z,15.65
2023-04-27T01:32:09.101Z,7.75
2023-04-27T01:34:36.621Z,9.27
2023-04-27T01:37:04.241Z,19.80
2023-04-27T01:39:31.578Z,17.08
2023-04-27T01:41:58.762Z,13.10
2023-04-27T01:44:26.288Z,12.88
2023-04-27T01:46:54.632Z,9.10
2023-04-27T01:49:21.740Z,5.88
2023-04-27T01:51:49.534Z,5.95
2023-04-27T01:54:16.600Z,5.90
2023-04-27T01:56:43.911Z,5.45
2023-04-27T01:59:11.454Z,5.10
2023-04-27T02:01:39.330Z,5.63
2023-04-27T02:04:06.790Z,5.63
2023-04-27T02:06:34.058Z,5.80
2023-04-27T02:09:01.451Z,5.53
2023-04-27T02:11:28.953Z,5.18
2023-04-27T02:13:56.687Z,5.15
2023-04-27T02:16:32.232Z,5.82
2023-04-27T02:18:59.531Z,6.10
2023-04-27T02:21:26.821Z,5.90
2023-04-27T02:23:53.819Z,7.93
2023-04-27T02:26:22.231Z,5.55
2023-04-27T02:28:50.427Z,6.25
2023-04-27T02:31:17.763Z,6.13
2023-04-27T02:33:46.384Z,5.68
2023-04-27T02:36:13.417Z,5.80
2023-04-27T02:38:40.794Z,5.70
2023-04-27T02:41:07.569Z,5.53
2023-04-27T02:43:34.638Z,5.95
2023-04-27T02:46:05.851Z,5.53
2023-04-27T02:48:33.150Z,5.00
2023-04-27T02:51:04.179Z,4.85
2023-04-27T02:53:31.473Z,5.13
2023-04-27T02:55:59.292Z,5.40
2023-04-27T02:58:26.742Z,5.43
2023-04-27T03:00:57.335Z,6.28
2023-04-27T03:03:25.247Z,8.00
2023-04-27T03:05:52.330Z,7.63
2023-04-27T03:08:19.909Z,6.60
2023-04-27T03:10:46.990Z,6.15
2023-04-27T03:13:15.383Z,5.78
2023-04-27T03:15:43.956Z,6.60
2023-04-27T03:18:11.380Z,6.30
2023-04-27T03:20:38.617Z,6.10
2023-04-27T03:23:07.805Z,5.40
2023-04-27T03:25:34.979Z,5.45
2023-04-27T03:28:02.087Z,5.20
2023-04-27T03:30:29.853Z,5.53
2023-04-27T03:32:57.745Z,5.07
2023-04-27T03:35:25.059Z,4.90
2023-04-27T03:37:52.533Z,5.03
2023-04-27T03:40:20.986Z,4.57
2023-04-27T03:42:48.145Z,5.07
2023-04-27T03:45:16.813Z,4.97
2023-04-27T03:47:44.079Z,5.03
2023-04-27T03:50:11.562Z,5.30
2023-04-27T03:52:38.660Z,4.80
2023-04-27T03:55:07.108Z,4.50
2023-04-27T03:57:34.631Z,5.00
2023-04-27T04:00:01.729Z,4.95
2023-04-27T04:02:30.358Z,5.90
2023-04-27T04:04:57.888Z,18.17
2023-04-27T04:07:25.114Z,10.85
2023-04-27T04:09:52.125Z,12.63
2023-04-27T04:12:19.091Z,8.93
2023-04-27T04:14:49.065Z,8.48
2023-04-27T04:17:16.950Z,9.32
2023-04-27T04:19:44.134Z,10.63
2023-04-27T04:22:12.032Z,7.72
2023-04-27T04:24:40.477Z,7.97
2023-04-27T04:27:07.522Z,7.57
2023-04-27T04:29:34.532Z,6.88
2023-04-27T04:32:01.641Z,6.85
2023-04-27T04:34:31.144Z,6.05
2023-04-27T04:36:58.301Z,6.38
2023-04-27T04:39:27.033Z,7.00
2023-04-27T04:41:54.143Z,6.22
2023-04-27T04:44:22.107Z,6.38
2023-04-27T04:46:49.256Z,4.45
2023-04-27T04:49:16.638Z,4.90
2023-04-27T04:51:47.218Z,4.78
2023-04-27T04:54:14.426Z,4.55
2023-04-27T04:56:42.025Z,4.45
2023-04-27T04:59:08.940Z,4.68
2023-04-27T05:01:37.118Z,4.45
2023-04-27T05:04:05.583Z,5.20
2023-04-27T05:06:33.304Z,4.68
2023-04-27T05:09:00.257Z,5.30
2023-04-27T05:11:27.096Z,5.28
2023-04-27T05:13:54.140Z,5.00
2023-04-27T05:16:21.338Z,5.22
2023-04-27T05:18:48.636Z,4.85
2023-04-27T05:21:16.601Z,5.07
2023-04-27T05:23:43.547Z,5.40
2023-04-27T05:26:14.920Z,4.57
2023-04-27T05:28:41.805Z,4.40
2023-04-27T05:31:09.187Z,4.97
2023-04-27T05:33:36.755Z,4.95
2023-04-27T05:36:04.799Z,5.07
2023-04-27T05:38:33.459Z,4.57
2023-04-27T05:41:00.661Z,5.00
2023-04-27T05:43:27.629Z,4.90
2023-04-27T05:45:54.956Z,4.60
2023-04-27T05:48:22.081Z,4.45
2023-04-27T05:50:49.170Z,4.50
2023-04-27T05:53:17.368Z,4.82
2023-04-27T05:55:44.777Z,4.65
2023-04-27T05:58:11.824Z,4.32
2023-04-27T06:00:39.094Z,4.65
2023-04-27T06:03:07.204Z,4.25
2023-04-27T06:05:34.787Z,4.28
2023-04-27T06:08:01.980Z,4.63
2023-04-27T06:10:29.230Z,4.55
2023-04-27T06:12:56.676Z,4.63
2023-04-27T06:15:24.168Z,4.50
2023-04-27T06:17:51.400Z,4.60
2023-04-27T06:20:18.826Z,4.47
2023-04-27T06:22:46.956Z,4.93
2023-04-27T06:25:14.106Z,4.38
2023-04-27T06:27:41.473Z,5.00
2023-04-27T06:30:08.778Z,4.45
2023-04-27T06:32:35.955Z,4.47
2023-04-27T06:35:03.014Z,4.25
2023-04-27T06:37:30.749Z,4.35
2023-04-27T06:39:58.014Z,4.50
2023-04-27T06:42:25.159Z,4.47
2023-04-27T06:44:56.664Z,4.32
2023-04-27T06:49:51.270Z,4.32
2023-04-27T06:52:18.765Z,4.43
2023-04-27T06:54:45.788Z,3.83
2023-04-27T06:57:12.820Z,4.43
2023-04-27T06:59:39.949Z,4.30
2023-04-27T07:02:07.776Z,4.28
2023-04-27T07:04:35.038Z,3.90
2023-04-27T07:07:02.053Z,4.20
2023-04-27T07:09:29.655Z,3.92
2023-04-27T07:11:58.319Z,3.67
2023-04-27T07:14:25.400Z,4.05
2023-04-27T07:16:52.797Z,3.80
2023-04-27T07:19:19.832Z,4.65
2023-04-27T07:21:47.109Z,3.80
2023-04-27T07:24:14.364Z,3.70
2023-04-27T07:26:41.498Z,3.30
2023-04-27T07:29:25.413Z,3.03
2023-04-27T07:31:54.561Z,3.20
2023-04-27T07:34:22.054Z,2.80
2023-04-27T07:36:49.194Z,2.92
2023-04-27T07:39:16.285Z,2.97
2023-04-27T07:41:43.615Z,2.75
2023-04-27T07:44:12.349Z,3.35
2023-04-27T07:46:39.979Z,3.15
2023-04-27T07:49:07.027Z,3.60
2023-04-27T07:51:34.674Z,3.33
2023-04-27T07:54:04.257Z,5.10
2023-04-27T07:56:31.249Z,3.13
2023-04-27T07:58:58.357Z,3.47
2023-04-27T08:01:25.766Z,3.10
2023-04-27T08:03:52.884Z,3.13
2023-04-27T08:06:20.790Z,2.88
2023-04-27T08:08:48.316Z,3.60
2023-04-27T08:11:15.685Z,3.45
2023-04-27T08:13:42.548Z,3.00
2023-04-27T08:16:09.509Z,3.78
2023-04-27T08:18:36.666Z,3.55
2023-04-27T08:21:04.326Z,3.55
2023-04-27T08:23:33.124Z,3.80
2023-04-27T08:26:00.127Z,3.60
2023-04-27T08:28:27.791Z,3.60
2023-04-27T08:30:55.237Z,3.80
2023-04-27T08:33:22.397Z,3.72
2023-04-27T08:35:49.345Z,3.60
2023-04-27T08:38:16.521Z,3.88
2023-04-27T08:40:43.821Z,3.85
2023-04-27T08:43:10.882Z,3.67
2023-04-27T08:45:38.465Z,3.92
2023-04-27T08:48:06.188Z,4.40
2023-04-27T08:50:33.118Z,4.03
2023-04-27T08:53:00.747Z,3.90
2023-04-27T08:55:28.368Z,3.90
2023-04-27T08:58:00.321Z,3.20
2023-04-27T09:00:27.757Z,3.83
2023-04-27T09:02:54.879Z,3.70
2023-04-27T09:05:23.815Z,3.90
2023-04-27T09:08:05.256Z,3.83
2023-04-27T09:10:50.881Z,4.03
2023-04-27T09:13:18.048Z,4.18
2023-04-27T09:15:48.593Z,3.83
2023-04-27T09:18:17.726Z,3.67
2023-04-27T09:20:49.620Z,4.03
2023-04-27T09:23:26.610Z,3.67
2023-04-27T09:25:55.136Z,3.80
2023-04-27T09:28:22.658Z,4.03
2023-04-27T09:30:56.847Z,4.15
2023-04-27T09:33:31.910Z,4.10
2023-04-27T09:36:00.497Z,3.97
2023-04-27T09:38:27.747Z,4.38
2023-04-27T09:40:56.754Z,3.90
2023-04-27T09:43:24.912Z,3.92
2023-04-27T09:45:52.048Z,3.95
2023-04-27T09:48:19.148Z,3.55
2023-04-27T09:50:47.072Z,3.85
2023-04-27T09:53:16.145Z,3.90
2023-04-27T09:55:49.484Z,3.70
2023-04-27T09:58:49.281Z,3.78
2023-04-27T10:01:27.466Z,4.38
2023-04-27T10:04:10.015Z,3.40
2023-04-27T10:06:59.169Z,3.70
2023-04-27T10:09:28.000Z,3.90
2023-04-27T10:11:55.300Z,4.43
2023-04-27T10:14:24.002Z,4.05
2023-04-27T10:16:58.709Z,4.03
2023-04-27T10:19:26.120Z,3.72
2023-04-27T10:22:03.612Z,4.03
2023-04-27T10:24:41.835Z,4.03
2023-04-27T10:27:14.178Z,4.10
2023-04-27T10:29:44.017Z,4.40
2023-04-27T10:32:26.594Z,4.18
2023-04-27T10:35:06.318Z,3.63
2023-04-27T10:37:43.530Z,4.30
2023-04-27T10:40:15.107Z,4.28
2023-04-27T10:42:42.455Z,4.35
2023-04-27T10:45:09.907Z,4.07
2023-04-27T10:47:39.270Z,4.10
2023-04-27T10:50:07.591Z,4.10
2023-04-27T10:52:34.793Z,4.18
2023-04-27T10:55:14.985Z,4.05
2023-04-27T10:57:53.359Z,4.20
2023-04-27T11:00:25.252Z,3.50
2023-04-27T11:02:53.992Z,4.22
2023-04-27T11:05:28.855Z,3.72
2023-04-27T11:08:09.892Z,3.60
2023-04-27T11:10:41.476Z,3.30
2023-04-27T11:13:13.961Z,3.83
2023-04-27T11:15:48.954Z,3.47
2023-04-27T11:18:17.317Z,3.70
2023-04-27T11:20:49.313Z,3.70
2023-04-27T11:23:24.675Z,3.60
2023-04-27T11:25:52.471Z,3.85
2023-04-27T11:28:20.171Z,3.65
2023-04-27T11:30:47.571Z,3.60
2023-04-27T11:33:14.345Z,3.53
2023-04-27T11:35:42.707Z,3.67
2023-04-27T11:38:17.024Z,3.50
2023-04-27T11:40:45.023Z,3.20
2023-04-27T11:43:15.596Z,3.20
2023-04-27T11:45:46.487Z,2.95
2023-04-27T11:48:16.810Z,3.40
2023-04-27T11:50:48.515Z,3.60
2023-04-27T11:53:18.563Z,3.30
2023-04-27T11:55:52.450Z,2.83
2023-04-27T11:58:21.323Z,3.17
2023-04-27T12:00:48.350Z,3.60
2023-04-27T12:03:15.668Z,3.40
2023-04-27T12:05:52.984Z,3.10
2023-04-27T12:08:20.779Z,3.05
2023-04-27T12:10:47.722Z,2.88
2023-04-27T12:13:14.997Z,3.42
2023-04-27T12:15:42.641Z,3.00
2023-04-27T12:18:09.951Z,3.10
2023-04-27T12:20:37.652Z,3.10
2023-04-27T12:23:04.523Z,3.10
2023-04-27T12:25:31.866Z,3.40
2023-04-27T12:27:59.093Z,3.20
2023-04-27T12:30:27.235Z,3.17
2023-04-27T12:32:54.256Z,3.60
2023-04-27T12:35:21.467Z,3.20
2023-04-27T12:37:50.068Z,3.80
2023-04-27T12:40:17.429Z,4.20
2023-04-27T12:42:44.639Z,3.72
2023-04-27T12:45:12.016Z,4.20
2023-04-27T12:47:58.345Z,4.00
2023-04-27T12:50:27.316Z,3.85
2023-04-27T12:52:54.867Z,3.80
2023-04-27T12:55:33.087Z,4.05
2023-04-27T12:58:03.482Z,3.67
2023-04-27T13:00:31.175Z,3.77
2023-04-27T13:02:58.820Z,4.10
2023-04-27T13:05:26.529Z,3.88
2023-04-27T13:07:53.641Z,4.45
2023-04-27T13:10:20.882Z,4.97
2023-04-27T13:12:47.937Z,3.80
2023-04-27T13:15:15.709Z,3.78
2023-04-27T13:17:43.868Z,4.20
2023-04-27T13:20:11.814Z,4.15
2023-04-27T13:22:40.700Z,3.83
2023-04-27T13:25:09.498Z,4.00
2023-04-27T13:27:36.961Z,4.38
2023-04-27T13:30:05.311Z,4.40
2023-04-27T13:32:32.665Z,3.70
2023-04-27T13:34:59.864Z,3.80
2023-04-27T13:37:27.388Z,3.72
2023-04-27T13:39:55.533Z,3.92
2023-04-27T13:42:29.159Z,3.78
2023-04-27T13:44:57.107Z,3.30
2023-04-27T13:47:24.038Z,3.35
2023-04-27T13:49:52.277Z,3.40
2023-04-27T13:52:19.705Z,3.47
2023-04-27T13:54:47.164Z,3.40
2023-04-27T13:57:15.363Z,2.95
2023-04-27T13:59:42.584Z,3.00
2023-04-27T14:02:10.254Z,3.05
2023-04-27T14:04:37.349Z,2.88
2023-04-27T14:07:05.382Z,3.08
2023-04-27T14:09:32.592Z,2.90
2023-04-27T14:12:00.285Z,2.80
2023-04-27T14:14:27.671Z,2.75
2023-04-27T14:16:54.976Z,2.70
2023-04-27T14:19:22.226Z,2.67
2023-04-27T14:21:49.728Z,2.42
2023-04-27T14:24:16.896Z,3.15
2023-04-27T14:26:44.240Z,3.80
2023-04-27T14:29:12.028Z,4.13
2023-04-27T14:31:39.729Z,3.58
2023-04-27T14:34:07.660Z,3.00
2023-04-27T14:36:34.946Z,2.80
2023-04-27T14:39:02.079Z,3.00
2023-04-27T14:41:29.212Z,3.05
2023-04-27T14:43:56.422Z,3.47
2023-04-27T14:46:23.328Z,3.10
2023-04-27T14:48:50.259Z,2.80
2023-04-27T14:51:17.474Z,2.50
2023-04-27T14:53:44.615Z,2.85
2023-04-27T14:56:11.876Z,2.47
2023-04-27T14:58:39.000Z,2.60
2023-04-27T15:01:07.488Z,2.70
2023-04-27T15:03:35.052Z,2.50
2023-04-27T15:06:03.138Z,2.97
2023-04-27T15:08:32.657Z,2.83
2023-04-27T15:11:03.858Z,2.70
2023-04-27T15:13:31.220Z,2.53
2023-04-27T15:15:59.325Z,2.85
2023-04-27T15:18:26.957Z,2.42
2023-04-27T15:20:54.678Z,2.35
2023-04-27T15:23:22.534Z,2.47
2023-04-27T15:25:50.288Z,2.30
2023-04-27T15:28:18.150Z,2.15
2023-04-27T15:30:46.024Z,2.60
2023-04-27T15:33:14.280Z,2.00
2023-04-27T15:35:41.789Z,2.30
2023-04-27T15:38:12.263Z,1.75
2023-04-27T15:40:39.685Z,2.30
2023-04-27T15:43:06.947Z,2.17
2023-04-27T15:45:33.929Z,2.05
2023-04-27T15:48:00.799Z,2.00
2023-04-27T15:50:28.874Z,2.03
2023-04-27T15:52:56.394Z,1.88
2023-04-27T15:55:23.353Z,2.20
2023-04-27T15:57:50.865Z,1.73
2023-04-27T16:00:19.047Z,1.90
2023-04-27T16:02:46.795Z,1.88
2023-04-27T16:05:14.421Z,1.90
2023-04-27T16:07:43.237Z,1.52
2023-04-27T16:10:11.496Z,1.63
2023-04-27T16:12:38.914Z,2.03
2023-04-27T16:15:08.446Z,1.75
2023-04-27T16:17:37.465Z,1.80
2023-04-27T16:20:08.169Z,2.00
2023-04-27T16:22:36.138Z,1.95
2023-04-27T16:25:06.551Z,1.90
2023-04-27T16:27:33.625Z,1.60
2023-04-27T16:30:00.681Z,1.67
2023-04-27T16:32:27.699Z,1.75
2023-04-27T16:34:55.098Z,1.90
2023-04-27T16:37:22.080Z,1.85
2023-04-27T16:39:49.362Z,1.73
2023-04-27T16:42:20.580Z,2.55
2023-04-27T16:44:47.744Z,1.60
2023-04-27T16:47:16.477Z,2.00
2023-04-27T16:49:44.323Z,1.70
2023-04-27T16:52:11.939Z,1.77
2023-04-27T16:54:38.971Z,1.70
2023-04-27T16:57:07.881Z,1.70
2023-04-27T16:59:35.150Z,1.80
2023-04-27T17:02:16.324Z,1.40
2023-04-27T17:04:49.117Z,1.58
2023-04-27T17:07:16.270Z,1.50
2023-04-27T17:09:43.504Z,1.60
2023-04-27T17:12:14.998Z,1.48
2023-04-27T17:14:42.663Z,1.30
2023-04-27T17:17:11.167Z,2.70
2023-04-27T17:19:38.966Z,1.67
2023-04-27T17:22:08.081Z,14.95
2023-04-27T17:24:35.046Z,12.75
2023-04-27T17:27:01.790Z,2.17
2023-04-27T17:29:29.178Z,1.48
2023-04-27T17:31:56.067Z,1.40
2023-04-27T17:34:22.985Z,1.38
2023-04-27T17:36:49.992Z,1.55
2023-04-27T17:39:17.196Z,1.42
2023-04-27T17:41:44.404Z,1.50
2023-04-27T17:44:12.610Z,1.67
2023-04-27T17:46:45.719Z,1.40
2023-04-27T17:49:13.076Z,1.40
2023-04-27T17:51:40.672Z,1.52
2023-04-27T17:54:07.754Z,1.52
2023-04-27T17:56:34.670Z,1.75
2023-04-27T17:59:01.719Z,2.08
2023-04-27T18:01:28.811Z,2.28
2023-04-27T18:03:56.083Z,2.35
2023-04-27T18:06:23.183Z,1.70
2023-04-27T18:08:50.248Z,2.55
2023-04-27T18:11:17.185Z,2.30
2023-04-27T18:13:45.471Z,2.35
2023-04-27T18:16:12.374Z,2.03
2023-04-27T18:18:39.213Z,1.80
2023-04-27T18:21:06.913Z,1.90
2023-04-27T18:23:37.502Z,1.77
2023-04-27T18:26:04.662Z,1.70
2023-04-27T18:28:31.705Z,1.90
2023-04-27T18:30:58.609Z,1.80
2023-04-27T18:33:25.915Z,1.90
2023-04-27T18:35:52.900Z,1.70
2023-04-27T18:38:19.743Z,1.80
2023-04-27T18:40:46.783Z,2.10
2023-04-27T18:43:13.784Z,2.10
2023-04-27T18:45:40.809Z,2.38
2023-04-27T18:48:07.795Z,2.45
2023-04-27T18:50:34.924Z,2.90
2023-04-27T18:53:01.856Z,2.83
2023-04-27T18:55:28.635Z,3.03
2023-04-27T18:57:55.616Z,2.88
2023-04-27T19:00:22.534Z,3.40
2023-04-27T19:02:51.994Z,3.65
2023-04-27T19:05:19.675Z,3.83
2023-04-27T19:07:46.706Z,3.60
2023-04-27T19:10:13.691Z,3.70
2023-04-27T19:12:40.739Z,3.67
2023-04-27T19:15:08.150Z,2.70
2023-04-27T19:17:35.571Z,3.05
2023-04-27T19:20:02.678Z,3.80
2023-04-27T19:22:34.086Z,3.42
2023-04-27T19:25:01.444Z,3.30
2023-04-27T19:27:28.749Z,3.33
2023-04-27T19:29:58.223Z,2.90
2023-04-27T19:34:58.378Z,2.30
2023-04-27T19:37:26.192Z,2.95
2023-04-27T19:39:53.271Z,2.38
2023-04-27T19:42:20.338Z,2.97
2023-04-27T19:44:47.206Z,2.50
2023-04-27T19:47:14.113Z,2.78
2023-04-27T19:49:41.163Z,2.70
2023-04-27T19:52:08.045Z,2.50
2023-04-27T19:54:38.177Z,2.72
2023-04-27T19:57:05.553Z,2.80
2023-04-27T19:59:32.656Z,2.63
2023-04-27T20:01:59.569Z,2.67
2023-04-27T20:04:27.516Z,2.72
2023-04-27T20:06:54.605Z,2.83
2023-04-27T20:09:21.626Z,2.55
2023-04-27T20:11:49.064Z,2.50
2023-04-27T20:14:16.404Z,2.95
2023-04-27T20:16:43.699Z,2.92
2023-04-27T20:19:10.966Z,3.40
2023-04-27T20:21:38.444Z,3.42
2023-04-27T20:24:05.543Z,3.28
2023-04-27T20:26:32.655Z,2.90
2023-04-27T20:28:59.723Z,3.50
2023-04-27T20:31:26.800Z,4.05
2023-04-27T20:33:53.880Z,4.00
2023-04-27T20:36:23.269Z,3.10
2023-04-27T20:38:50.377Z,3.42
2023-04-27T20:41:17.548Z,3.05
2023-04-27T20:43:45.626Z,3.15
2023-04-27T20:46:12.921Z,3.33
2023-04-27T20:48:40.084Z,3.70
2023-04-27T20:51:07.084Z,3.60
2023-04-27T20:53:34.399Z,3.75
2023-04-27T20:56:02.423Z,4.15
2023-04-27T20:58:29.480Z,3.88
2023-04-27T21:00:56.560Z,4.18
2023-04-27T21:03:23.782Z,4.03
2023-04-27T21:05:50.944Z,4.57
2023-04-27T21:08:18.315Z,4.10
2023-04-27T21:10:45.345Z,4.18
2023-04-27T21:13:12.200Z,4.03
2023-04-27T21:15:39.476Z,4.45
2023-04-27T21:18:13.488Z,4.47
2023-04-27T21:20:46.149Z,3.80
2023-04-27T21:23:14.890Z,4.00
2023-04-27T21:25:46.116Z,4.00
2023-04-27T21:28:13.565Z,3.50
2023-04-27T21:30:40.962Z,3.70
2023-04-27T21:33:08.098Z,4.15
2023-04-27T21:35:35.057Z,3.67
2023-04-27T21:38:02.114Z,3.92
2023-04-27T21:40:29.114Z,3.97
2023-04-27T21:42:56.504Z,3.80
2023-04-27T21:45:23.611Z,3.70
2023-04-27T21:47:50.871Z,4.30
2023-04-27T21:50:18.317Z,4.22
2023-04-27T21:52:45.944Z,4.40
2023-04-27T21:55:12.900Z,4.35
2023-04-27T21:57:41.561Z,5.18
2023-04-27T22:00:13.497Z,6.03
2023-04-27T22:02:48.262Z,6.35
2023-04-27T22:05:16.432Z,5.75
2023-04-27T22:07:46.243Z,5.60
2023-04-27T22:10:13.410Z,5.35
2023-04-27T22:12:40.595Z,5.13
2023-04-27T22:15:08.517Z,5.10
2023-04-27T22:17:35.749Z,5.80
2023-04-27T22:20:04.683Z,5.43
2023-04-27T22:22:31.576Z,5.70
2023-04-27T22:24:58.460Z,5.57
2023-04-27T22:27:30.058Z,5.60
2023-04-27T22:30:02.857Z,6.15
2023-04-27T22:32:31.077Z,6.00
2023-04-27T22:34:58.532Z,5.55
2023-04-27T22:37:26.772Z,4.57
2023-04-27T22:39:55.538Z,4.30
2023-04-27T22:42:22.532Z,5.03
2023-04-27T22:44:49.545Z,4.80
2023-04-27T22:47:17.010Z,4.90
2023-04-27T22:49:44.156Z,5.20
2023-04-27T22:52:11.701Z,4.82
2023-04-27T22:54:38.522Z,5.00
2023-04-27T22:57:05.657Z,5.90
2023-04-27T22:59:32.774Z,5.15
2023-04-27T23:01:59.814Z,5.38
2023-04-27T23:04:27.504Z,5.47
2023-04-27T23:06:54.749Z,5.50
2023-04-27T23:09:22.028Z,5.82
2023-04-27T23:11:51.869Z,5.60
2023-04-27T23:14:19.097Z,5.15
2023-04-27T23:16:47.419Z,5.55
2023-04-27T23:19:14.989Z,5.82
2023-04-27T23:21:42.160Z,6.32
2023-04-27T23:24:09.075Z,6.47
2023-04-27T23:26:35.948Z,6.80
2023-04-27T23:29:03.168Z,5.97
2023-04-27T23:31:30.425Z,5.40
2023-04-27T23:33:58.218Z,5.30
2023-04-27T23:36:25.336Z,5.72
2023-04-27T23:38:52.717Z,5.47
2023-04-27T23:41:20.865Z,5.70
2023-04-27T23:43:48.185Z,5.63
2023-04-27T23:46:15.162Z,5.28
2023-04-27T23:48:42.774Z,5.50
2023-04-27T23:51:09.681Z,5.85
2023-04-27T23:53:36.780Z,6.13
2023-04-27T23:56:03.960Z,7.22
2023-04-27T23:58:31.091Z,6.85
